createdAt,value
2023-01-09T00:02:40.792Z,11.75
2023-01-09T00:05:42.623Z,10.82
2023-01-09T00:08:44.359Z,12.40
2023-01-09T00:11:46.078Z,13.50
2023-01-09T00:14:47.740Z,12.90
2023-01-09T00:17:49.996Z,13.77
2023-01-09T00:20:51.831Z,13.38
2023-01-09T00:23:54.414Z,12.50
2023-01-09T00:26:56.055Z,14.43
2023-01-09T00:29:57.780Z,12.35
2023-01-09T00:32:59.791Z,11.80
2023-01-09T00:36:02.393Z,12.98
2023-01-09T00:39:05.063Z,12.18
2023-01-09T00:42:10.174Z,12.52
2023-01-09T00:45:20.256Z,12.43
2023-01-09T00:48:27.138Z,13.02
2023-01-09T00:51:29.008Z,12.37
2023-01-09T00:54:31.988Z,12.77
2023-01-09T00:57:33.706Z,12.32
2023-01-09T01:00:35.414Z,13.27
2023-01-09T01:03:37.117Z,13.05
2023-01-09T01:06:57.565Z,12.93
2023-01-09T01:09:59.230Z,12.73
2023-01-09T01:13:00.929Z,13.52
2023-01-09T01:16:07.913Z,13.88
2023-01-09T01:19:09.568Z,13.23
2023-01-09T01:22:11.435Z,11.73
2023-01-09T01:25:17.002Z,12.37
2023-01-09T01:28:19.338Z,13.00
2023-01-09T01:31:21.059Z,12.43
2023-01-09T01:34:22.774Z,12.65
2023-01-09T01:37:24.755Z,12.27
2023-01-09T01:40:26.666Z,12.15
2023-01-09T01:43:29.386Z,13.77
2023-01-09T01:46:33.321Z,12.57
2023-01-09T01:49:35.019Z,12.80
2023-01-09T01:52:37.821Z,12.50
2023-01-09T01:55:45.023Z,12.40
2023-01-09T01:59:12.081Z,12.70
2023-01-09T02:02:13.815Z,12.48
2023-01-09T02:05:16.024Z,12.40
2023-01-09T02:08:18.332Z,12.55
2023-01-09T02:11:20.773Z,11.60
2023-01-09T02:14:27.922Z,12.32
2023-01-09T02:17:32.357Z,12.57
2023-01-09T02:20:52.318Z,12.73
2023-01-09T02:24:03.320Z,12.40
2023-01-09T02:27:45.260Z,11.40
2023-01-09T02:30:51.945Z,12.25
2023-01-09T02:34:12.026Z,12.33
2023-01-09T02:37:41.851Z,11.55
2023-01-09T02:41:24.044Z,11.63
2023-01-09T02:44:30.561Z,12.07
2023-01-09T02:47:37.069Z,11.93
2023-01-09T02:50:51.249Z,11.60
2023-01-09T02:54:05.063Z,11.73
2023-01-09T02:57:37.219Z,12.15
2023-01-09T03:00:47.920Z,11.38
2023-01-09T03:03:58.335Z,12.68
2023-01-09T03:07:13.872Z,12.65
2023-01-09T03:10:21.292Z,12.52
2023-01-09T03:13:26.599Z,11.15
2023-01-09T03:16:34.200Z,11.68
2023-01-09T03:19:37.419Z,11.88
2023-01-09T03:22:40.691Z,11.18
2023-01-09T03:25:42.401Z,13.85
2023-01-09T03:28:44.803Z,11.35
2023-01-09T03:31:46.491Z,12.37
2023-01-09T03:34:48.181Z,12.27
2023-01-09T03:37:51.724Z,11.48
2023-01-09T03:40:53.423Z,11.38
2023-01-09T03:43:55.129Z,10.70
2023-01-09T03:46:56.782Z,11.27
2023-01-09T03:49:58.471Z,11.18
2023-01-09T03:53:00.172Z,12.57
2023-01-09T03:56:01.885Z,10.98
2023-01-09T03:59:03.574Z,11.35
2023-01-09T04:02:05.388Z,10.80
2023-01-09T04:05:07.940Z,11.50
2023-01-09T04:08:09.677Z,10.73
2023-01-09T04:11:11.397Z,9.73
2023-01-09T04:14:13.077Z,11.12
2023-01-09T04:17:16.745Z,10.15
2023-01-09T04:20:18.941Z,10.35
2023-01-09T04:23:21.034Z,11.55
2023-01-09T04:26:22.730Z,10.30
2023-01-09T04:29:27.342Z,10.60
2023-01-09T04:32:29.066Z,9.80
2023-01-09T04:35:30.737Z,10.55
2023-01-09T04:38:32.546Z,9.90
2023-01-09T04:41:49.394Z,9.68
2023-01-09T04:44:54.234Z,11.00
2023-01-09T04:47:55.917Z,10.52
2023-01-09T04:50:57.571Z,10.27
2023-01-09T04:53:59.306Z,9.43
2023-01-09T04:57:01.033Z,10.15
2023-01-09T05:00:05.237Z,9.57
2023-01-09T05:03:06.902Z,9.27
2023-01-09T05:06:08.576Z,9.45
2023-01-09T05:09:10.258Z,9.25
2023-01-09T05:12:11.945Z,8.60
2023-01-09T05:15:13.664Z,9.48
2023-01-09T05:18:15.809Z,12.02
2023-01-09T05:21:17.475Z,10.20
2023-01-09T05:24:19.202Z,10.00
2023-01-09T05:27:20.880Z,10.32
2023-01-09T05:30:22.600Z,9.98
2023-01-09T05:33:24.361Z,9.82
2023-01-09T05:36:26.540Z,10.15
2023-01-09T05:39:28.275Z,10.25
2023-01-09T05:42:29.944Z,9.13
2023-01-09T05:45:31.715Z,10.93
2023-01-09T05:48:33.446Z,9.20
2023-01-09T05:51:35.217Z,10.40
2023-01-09T05:54:36.887Z,11.48
2023-01-09T05:57:38.565Z,10.73
2023-01-09T06:00:40.227Z,10.05
2023-01-09T06:03:42.466Z,11.77
2023-01-09T06:06:44.122Z,11.20
2023-01-09T06:09:45.763Z,10.18
2023-01-09T06:16:08.949Z,10.80
2023-01-09T06:19:10.815Z,9.27
2023-01-09T06:22:12.479Z,9.70
2023-01-09T06:25:14.147Z,9.70
2023-01-09T06:28:15.841Z,9.65
2023-01-09T06:31:17.716Z,10.38
2023-01-09T06:34:19.500Z,9.75
2023-01-09T06:37:21.164Z,9.38
2023-01-09T06:40:22.820Z,9.20
2023-01-09T06:43:24.503Z,9.05
2023-01-09T06:46:26.382Z,10.65
2023-01-09T06:49:28.030Z,9.43
2023-01-09T06:52:29.682Z,10.07
2023-01-09T06:55:31.391Z,10.02
2023-01-09T06:58:33.066Z,10.50
2023-01-09T07:01:34.883Z,10.65
2023-01-09T07:04:36.708Z,9.75
2023-01-09T07:07:41.467Z,9.45
2023-01-09T07:10:43.837Z,8.93
2023-01-09T07:13:45.500Z,9.48
2023-01-09T07:16:47.194Z,9.73
2023-01-09T07:19:48.863Z,10.10
2023-01-09T07:22:50.530Z,9.13
2023-01-09T07:25:52.545Z,9.50
2023-01-09T07:28:54.714Z,9.75
2023-01-09T07:31:56.894Z,10.18
2023-01-09T07:34:58.951Z,9.40
2023-01-09T07:38:00.631Z,10.82
2023-01-09T07:41:02.273Z,10.13
2023-01-09T07:44:04.075Z,10.07
2023-01-09T07:47:05.774Z,9.90
2023-01-09T07:50:08.951Z,9.93
2023-01-09T07:53:10.634Z,10.23
2023-01-09T07:56:12.373Z,9.23
2023-01-09T07:59:14.352Z,9.65
2023-01-09T08:02:18.191Z,9.07
2023-01-09T08:05:20.677Z,9.10
2023-01-09T08:08:23.284Z,8.90
2023-01-09T08:11:25.491Z,8.63
2023-01-09T08:14:27.220Z,35.53
2023-01-09T08:17:28.852Z,17.70
2023-01-09T08:20:30.597Z,15.40
2023-01-09T08:23:32.582Z,9.50
2023-01-09T08:26:34.239Z,9.93
2023-01-09T08:29:35.906Z,11.77
2023-01-09T08:32:37.889Z,9.65
2023-01-09T08:35:39.551Z,11.20
2023-01-09T08:38:41.212Z,11.20
2023-01-09T08:42:01.373Z,10.93
2023-01-09T08:45:21.663Z,11.65
2023-01-09T08:48:23.396Z,11.63
2023-01-09T08:51:25.051Z,10.52
2023-01-09T08:54:26.774Z,9.77
2023-01-09T08:57:28.484Z,10.15
2023-01-09T09:00:30.208Z,10.63
2023-01-09T09:03:31.887Z,10.60
2023-01-09T09:06:34.489Z,11.77
2023-01-09T09:09:36.135Z,14.25
2023-01-09T09:12:37.802Z,11.75
2023-01-09T09:15:39.510Z,10.50
2023-01-09T09:18:41.177Z,11.02
2023-01-09T09:21:42.873Z,10.50
2023-01-09T09:24:44.573Z,10.88
2023-01-09T09:27:46.595Z,11.20
2023-01-09T09:30:48.278Z,11.77
2023-01-09T09:33:50.054Z,11.98
2023-01-09T09:36:51.892Z,11.05
2023-01-09T09:39:53.690Z,11.70
2023-01-09T09:43:29.088Z,10.70
2023-01-09T09:46:41.917Z,11.60
2023-01-09T09:50:02.082Z,10.82
2023-01-09T09:53:11.673Z,11.00
2023-01-09T09:56:17.098Z,12.82
2023-01-09T09:59:26.731Z,12.63
2023-01-09T10:02:57.250Z,12.37
2023-01-09T10:06:00.556Z,15.15
2023-01-09T10:09:28.952Z,12.75
2023-01-09T10:12:32.112Z,13.60
2023-01-09T10:15:41.876Z,14.43
2023-01-09T10:18:49.275Z,13.93
2023-01-09T10:21:56.815Z,12.05
2023-01-09T10:28:40.541Z,14.27
2023-01-09T10:31:54.378Z,15.90
2023-01-09T10:35:14.143Z,15.68
2023-01-09T10:38:25.620Z,14.10
2023-01-09T10:42:06.443Z,13.57
2023-01-09T10:45:17.900Z,12.70
2023-01-09T10:48:44.196Z,13.62
2023-01-09T10:52:02.495Z,13.40
2023-01-09T10:55:17.155Z,13.02
2023-01-09T10:58:22.003Z,13.57
2023-01-09T11:01:31.032Z,13.73
2023-01-09T11:04:36.255Z,13.85
2023-01-09T11:07:42.123Z,13.95
2023-01-09T11:10:47.377Z,13.82
2023-01-09T11:14:04.736Z,15.27
2023-01-09T11:17:06.435Z,15.48
2023-01-09T11:20:23.409Z,15.55
2023-01-09T11:23:34.254Z,14.75
2023-01-09T11:26:35.897Z,15.00
2023-01-09T11:29:37.836Z,15.98
2023-01-09T11:32:39.691Z,18.08
2023-01-09T11:35:51.172Z,31.73
2023-01-09T11:38:55.807Z,18.48
2023-01-09T11:42:00.130Z,18.52
2023-01-09T11:45:01.865Z,16.00
2023-01-09T11:48:16.701Z,17.87
2023-01-09T11:51:27.034Z,17.30
2023-01-09T11:54:32.500Z,39.53
2023-01-09T11:57:34.682Z,25.95
2023-01-09T12:00:51.596Z,24.27
2023-01-09T12:03:53.184Z,27.95
2023-01-09T12:07:00.783Z,19.58
2023-01-09T12:13:15.790Z,25.52
2023-01-09T12:16:39.343Z,28.33
2023-01-09T12:19:59.516Z,20.12
2023-01-09T12:23:13.131Z,19.83
2023-01-09T12:26:36.546Z,20.00
2023-01-09T12:29:59.535Z,25.67
2023-01-09T12:33:12.093Z,20.05
2023-01-09T12:36:35.562Z,20.17
2023-01-09T12:40:04.840Z,17.60
2023-01-09T12:43:51.151Z,17.95
2023-01-09T12:47:15.894Z,17.25
2023-01-09T12:50:30.892Z,22.00
2023-01-09T12:53:47.833Z,26.95
2023-01-09T12:57:04.129Z,23.42
2023-01-09T13:00:30.109Z,33.80
2023-01-09T13:03:39.037Z,25.52
2023-01-09T13:06:49.211Z,19.08
2023-01-09T13:10:21.135Z,25.25
2023-01-09T13:13:39.562Z,22.40
2023-01-09T13:16:46.214Z,18.80
2023-01-09T13:19:48.289Z,20.23
2023-01-09T13:22:52.429Z,34.00
2023-01-09T13:25:58.238Z,44.75
2023-01-09T13:29:08.798Z,37.97
2023-01-09T13:32:29.139Z,28.12
2023-01-09T13:35:30.798Z,24.80
2023-01-09T13:38:35.234Z,19.55
2023-01-09T13:42:06.957Z,18.02
2023-01-09T13:45:29.633Z,20.12
2023-01-09T13:48:41.459Z,17.48
2023-01-09T13:51:43.037Z,15.63
2023-01-09T13:54:59.991Z,18.23
2023-01-09T13:58:04.546Z,17.02
2023-01-09T14:01:24.578Z,21.42
2023-01-09T14:04:41.443Z,22.45
2023-01-09T14:07:45.777Z,20.73
2023-01-09T14:10:53.733Z,53.25
2023-01-09T14:14:02.976Z,47.75
2023-01-09T14:17:17.869Z,37.53
2023-01-09T14:20:36.552Z,32.97
2023-01-09T14:24:04.413Z,42.78
2023-01-09T14:27:46.535Z,37.83
2023-01-09T14:30:53.873Z,45.25
2023-01-09T14:34:30.971Z,26.35
2023-01-09T14:37:37.119Z,29.23
2023-01-09T14:40:47.580Z,23.10
2023-01-09T14:44:06.459Z,20.05
2023-01-09T14:47:17.615Z,21.83
2023-01-09T14:50:28.005Z,18.55
2023-01-09T14:53:31.779Z,20.73
2023-01-09T14:56:34.943Z,31.67
2023-01-09T14:59:36.576Z,21.17
2023-01-09T15:02:39.840Z,25.55
2023-01-09T15:05:45.165Z,34.10
2023-01-09T15:08:51.225Z,25.67
2023-01-09T15:11:56.880Z,21.23
2023-01-09T15:15:01.392Z,20.80
2023-01-09T15:18:08.095Z,18.37
2023-01-09T15:21:24.900Z,18.93
2023-01-09T15:24:29.735Z,36.20
2023-01-09T15:27:31.427Z,17.80
2023-01-09T15:30:35.299Z,17.12
2023-01-09T15:33:39.800Z,23.12
2023-01-09T15:36:41.542Z,20.25
2023-01-09T15:39:43.239Z,18.92
2023-01-09T15:43:01.139Z,17.85
2023-01-09T15:46:03.313Z,18.40
2023-01-09T15:49:05.191Z,24.83
2023-01-09T15:52:11.966Z,21.35
2023-01-09T15:55:37.124Z,20.95
2023-01-09T15:58:41.234Z,17.60
2023-01-09T16:01:44.879Z,19.52
2023-01-09T16:04:47.576Z,20.20
2023-01-09T16:07:50.925Z,19.70
2023-01-09T16:10:56.307Z,19.25
2023-01-09T16:14:10.309Z,21.17
2023-01-09T16:17:17.828Z,23.92
2023-01-09T16:23:35.774Z,29.02
2023-01-09T16:26:37.576Z,24.92
2023-01-09T16:29:46.159Z,19.30
2023-01-09T16:32:51.501Z,17.37
2023-01-09T16:35:53.838Z,24.52
2023-01-09T16:38:57.204Z,59.58
2023-01-09T16:42:17.858Z,95.72
2023-01-09T16:45:20.909Z,114.65
2023-01-09T16:48:22.549Z,111.20
2023-01-09T16:51:25.747Z,91.95
2023-01-09T16:54:27.402Z,48.90
2023-01-09T16:57:30.410Z,21.92
2023-01-09T17:00:32.147Z,13.98
2023-01-09T17:03:33.918Z,12.63
2023-01-09T17:06:35.823Z,14.87
2023-01-09T17:09:39.004Z,14.02
2023-01-09T17:12:42.736Z,15.32
2023-01-09T17:15:45.665Z,17.48
2023-01-09T17:18:47.419Z,25.27
2023-01-09T17:21:49.205Z,17.08
2023-01-09T17:25:26.004Z,15.43
2023-01-09T17:28:35.829Z,16.70
2023-01-09T17:31:38.782Z,20.92
2023-01-09T17:34:40.571Z,17.83
2023-01-09T17:37:42.765Z,20.20
2023-01-09T17:40:45.393Z,62.72
2023-01-09T17:43:47.108Z,99.03
2023-01-09T17:46:48.809Z,57.85
2023-01-09T17:49:50.773Z,48.42
2023-01-09T17:52:52.407Z,43.50
2023-01-09T17:55:54.082Z,51.03
2023-01-09T17:58:56.247Z,22.67
2023-01-09T18:01:58.076Z,26.08
2023-01-09T18:05:00.229Z,21.95
2023-01-09T18:08:02.317Z,21.52
2023-01-09T18:11:12.115Z,21.05
2023-01-09T18:14:14.111Z,17.62
2023-01-09T18:17:16.043Z,17.52
2023-01-09T18:20:18.691Z,16.33
2023-01-09T18:23:21.588Z,17.65
2023-01-09T18:26:24.896Z,22.90
2023-01-09T18:29:26.675Z,22.77
2023-01-09T18:32:28.531Z,22.33
2023-01-09T18:35:32.881Z,23.55
2023-01-09T18:38:34.706Z,20.50
2023-01-09T18:41:36.820Z,19.98
2023-01-09T18:44:38.920Z,19.87
2023-01-09T18:47:40.741Z,18.40
2023-01-09T18:50:42.872Z,19.27
2023-01-09T18:53:45.332Z,24.55
2023-01-09T18:56:47.075Z,21.23
2023-01-09T18:59:49.296Z,21.62
2023-01-09T19:02:51.127Z,22.23
2023-01-09T19:05:54.238Z,20.52
2023-01-09T19:08:57.659Z,20.17
2023-01-09T19:12:00.693Z,22.55
2023-01-09T19:15:02.591Z,18.23
2023-01-09T19:18:04.652Z,16.62
2023-01-09T19:21:15.566Z,16.20
2023-01-09T19:24:20.366Z,16.30
2023-01-09T19:27:23.057Z,16.40
2023-01-09T19:30:24.855Z,17.35
2023-01-09T19:33:27.275Z,15.27
2023-01-09T19:36:29.198Z,16.50
2023-01-09T19:39:33.886Z,14.95
2023-01-09T19:42:35.669Z,15.20
2023-01-09T19:45:40.452Z,15.98
2023-01-09T19:48:45.377Z,16.58
2023-01-09T19:51:47.460Z,16.40
2023-01-09T19:54:49.403Z,18.35
2023-01-09T19:57:52.941Z,17.17
2023-01-09T20:00:55.290Z,17.65
2023-01-09T20:04:02.754Z,18.52
2023-01-09T20:07:05.198Z,16.35
2023-01-09T20:10:07.600Z,15.73
2023-01-09T20:13:09.792Z,16.12
2023-01-09T20:16:16.356Z,14.93
2023-01-09T20:19:18.737Z,16.65
2023-01-09T20:22:21.194Z,14.95
2023-01-09T20:25:23.596Z,16.17
2023-01-09T20:28:27.838Z,15.40
2023-01-09T20:31:33.780Z,15.15
2023-01-09T20:34:35.546Z,16.40
2023-01-09T20:37:40.122Z,16.42
2023-01-09T20:40:45.232Z,15.52
2023-01-09T20:43:47.226Z,15.55
2023-01-09T20:46:49.439Z,15.60
2023-01-09T20:49:51.580Z,14.40
2023-01-09T20:52:53.648Z,16.77
2023-01-09T20:56:03.982Z,15.25
2023-01-09T20:59:08.681Z,17.67
2023-01-09T21:02:14.646Z,17.05
2023-01-09T21:05:16.371Z,16.35
2023-01-09T21:08:18.100Z,17.48
2023-01-09T21:11:21.851Z,17.73
2023-01-09T21:14:23.488Z,17.60
2023-01-09T21:17:25.195Z,16.12
2023-01-09T21:20:26.866Z,17.33
2023-01-09T21:23:28.515Z,16.33
2023-01-09T21:26:30.776Z,17.83
2023-01-09T21:29:32.585Z,16.55
2023-01-09T21:32:34.382Z,17.73
2023-01-09T21:35:36.387Z,16.75
2023-01-09T21:38:38.671Z,17.15
2023-01-09T21:41:59.346Z,18.45
2023-01-09T21:45:19.750Z,16.40
2023-01-09T21:48:23.647Z,16.98
2023-01-09T21:51:25.637Z,18.65
2023-01-09T21:54:27.346Z,17.17
2023-01-09T21:57:28.972Z,18.42
2023-01-09T22:00:31.041Z,16.50
2023-01-09T22:03:32.737Z,18.42
2023-01-09T22:06:35.275Z,17.73
2023-01-09T22:09:37.599Z,18.12
2023-01-09T22:12:39.403Z,16.42
2023-01-09T22:15:41.564Z,17.37
2023-01-09T22:18:43.299Z,15.98
2023-01-09T22:21:45.781Z,18.42
2023-01-09T22:24:47.646Z,17.80
2023-01-09T22:27:49.364Z,20.00
2023-01-09T22:30:51.055Z,18.80
2023-01-09T22:33:54.277Z,16.10
2023-01-09T22:36:55.937Z,16.90
2023-01-09T22:39:57.650Z,18.83
2023-01-09T22:42:59.784Z,16.35
2023-01-09T22:46:03.079Z,17.58
2023-01-09T22:49:04.876Z,17.23
2023-01-09T22:52:06.540Z,15.25
2023-01-09T22:55:09.420Z,15.70
2023-01-09T22:58:11.089Z,15.23
2023-01-09T23:01:13.300Z,14.32
2023-01-09T23:04:16.033Z,14.07
2023-01-09T23:07:17.703Z,14.40
2023-01-09T23:10:19.448Z,14.02
2023-01-09T23:13:21.133Z,14.10
2023-01-09T23:16:22.835Z,13.65
2023-01-09T23:19:24.575Z,13.70
2023-01-09T23:22:26.291Z,13.18
2023-01-09T23:25:28.156Z,13.95
2023-01-09T23:28:30.611Z,13.50
2023-01-09T23:31:34.436Z,13.30
2023-01-09T23:34:36.078Z,13.60
2023-01-09T23:37:37.932Z,12.85
2023-01-09T23:40:44.172Z,12.85
2023-01-09T23:43:46.031Z,12.85
2023-01-09T23:46:47.754Z,12.25
2023-01-09T23:49:49.419Z,13.35
2023-01-09T23:52:51.087Z,12.70
2023-01-09T23:55:56.851Z,13.00
2023-01-09T23:58:58.562Z,12.15
